CheckWX is a tool to help pilots better visualize weather data.  It is not intended as a substitute for an official pre-flight weather briefing.

15:58:16 UTC

KFLL TAF
Fort Lauderdale / Hollywood International Airport
Fort Lauderdale, Florida, USA
KFLL 241458Z 2415/2518 25005KT P6SM SCT030 SCT250 FM241700 12011KT P6SM VCTS SCT025CB BKN050 FM242300 13007KT P6SM FEW040 SCT250 FM251400 27005KT P6SM FEW030 SCT250

Jun-24@
15:00 UTC

Jun-24 @ 15:00 UTC

Jun-24@
17:00 UTC

Jun-24 @ 17:00 UTC

KFLL 241458Z 2415/2518 25005KT P6SM SCT030 SCT250
Wind
  • 250° at 5 KTS
Cloud Levels
  • Scattered at 3,000' AGL
  • Scattered at 25,000' AGL

Jun-24@
17:00 UTC

Jun-24 @ 17:00 UTC

Jun-24@
23:00 UTC

Jun-24 @ 23:00 UTC

FM241700 12011KT P6SM VCTS SCT025CB BKN050

From

From Standard forecast or significant change

Wind
  • 120° at 11 KTS
Conditions
Area Thunderstorm
Cloud Levels
  • Scattered at 2,500' AGL
  • Broken at 5,000' AGL

Jun-24@
23:00 UTC

Jun-24 @ 23:00 UTC

Jun-25@
14:00 UTC

Jun-25 @ 14:00 UTC

FM242300 13007KT P6SM FEW040 SCT250

From

From Standard forecast or significant change

Wind
  • 130° at 7 KTS
Cloud Levels
  • Few at 4,000' AGL
  • Scattered at 25,000' AGL

Jun-25@
14:00 UTC

Jun-25 @ 14:00 UTC

Jun-25@
18:00 UTC

Jun-25 @ 18:00 UTC

FM251400 27005KT P6SM FEW030 SCT250

From

From Standard forecast or significant change

Wind
  • 270° at 5 KTS
Cloud Levels
  • Few at 3,000' AGL
  • Scattered at 25,000' AGL